sensor_id;sensor_type;location;lat;lon;timestamp;P1;durP1;ratioP1;P2;durP2;ratioP2
76021;SDS011;64718;52.124;6.226;2023-08-06T00:01:52;13.32;;;7.85;;
76021;SDS011;64718;52.124;6.226;2023-08-06T00:04:20;12.00;;;8.05;;
76021;SDS011;64718;52.124;6.226;2023-08-06T00:06:47;14.57;;;8.00;;
76021;SDS011;64718;52.124;6.226;2023-08-06T00:09:13;13.70;;;7.80;;
76021;SDS011;64718;52.124;6.226;2023-08-06T00:11:40;12.55;;;8.07;;
76021;SDS011;64718;52.124;6.226;2023-08-06T00:14:08;16.45;;;8.57;;
76021;SDS011;64718;52.124;6.226;2023-08-06T00:16:35;14.73;;;9.77;;
76021;SDS011;64718;52.124;6.226;2023-08-06T00:19:02;14.50;;;8.65;;
76021;SDS011;64718;52.124;6.226;2023-08-06T00:21:30;15.20;;;9.10;;
76021;SDS011;64718;52.124;6.226;2023-08-06T00:23:56;16.92;;;8.07;;
76021;SDS011;64718;52.124;6.226;2023-08-06T00:26:23;12.98;;;8.57;;
76021;SDS011;64718;52.124;6.226;2023-08-06T00:28:49;14.13;;;9.50;;
76021;SDS011;64718;52.124;6.226;2023-08-06T00:31:16;13.23;;;8.82;;
76021;SDS011;64718;52.124;6.226;2023-08-06T00:33:43;14.15;;;8.85;;
76021;SDS011;64718;52.124;6.226;2023-08-06T00:36:09;14.75;;;9.73;;
76021;SDS011;64718;52.124;6.226;2023-08-06T00:38:37;13.52;;;7.95;;
76021;SDS011;64718;52.124;6.226;2023-08-06T00:41:04;12.38;;;7.97;;
76021;SDS011;64718;52.124;6.226;2023-08-06T00:43:31;15.70;;;8.40;;
76021;SDS011;64718;52.124;6.226;2023-08-06T00:45:57;17.33;;;9.40;;
76021;SDS011;64718;52.124;6.226;2023-08-06T00:48:23;13.45;;;8.43;;
76021;SDS011;64718;52.124;6.226;2023-08-06T00:50:50;15.98;;;9.77;;
76021;SDS011;64718;52.124;6.226;2023-08-06T00:53:17;17.67;;;9.48;;
76021;SDS011;64718;52.124;6.226;2023-08-06T00:55:45;15.30;;;9.80;;
76021;SDS011;64718;52.124;6.226;2023-08-06T00:58:12;12.63;;;8.63;;
76021;SDS011;64718;52.124;6.226;2023-08-06T01:00:39;13.00;;;8.60;;
76021;SDS011;64718;52.124;6.226;2023-08-06T01:03:06;15.40;;;9.23;;
76021;SDS011;64718;52.124;6.226;2023-08-06T01:05:32;13.82;;;8.98;;
76021;SDS011;64718;52.124;6.226;2023-08-06T01:08:03;13.70;;;9.00;;
76021;SDS011;64718;52.124;6.226;2023-08-06T01:10:40;13.13;;;8.73;;
76021;SDS011;64718;52.124;6.226;2023-08-06T01:13:27;14.38;;;8.38;;
76021;SDS011;64718;52.124;6.226;2023-08-06T01:15:59;13.77;;;6.78;;
76021;SDS011;64718;52.124;6.226;2023-08-06T01:18:27;16.30;;;9.48;;
76021;SDS011;64718;52.124;6.226;2023-08-06T01:20:55;13.40;;;8.45;;
76021;SDS011;64718;52.124;6.226;2023-08-06T01:23:22;14.90;;;8.45;;
76021;SDS011;64718;52.124;6.226;2023-08-06T01:25:53;14.23;;;8.82;;
76021;SDS011;64718;52.124;6.226;2023-08-06T01:28:27;13.40;;;7.15;;
76021;SDS011;64718;52.124;6.226;2023-08-06T01:31:02;12.65;;;7.55;;
76021;SDS011;64718;52.124;6.226;2023-08-06T01:33:35;14.50;;;7.70;;
76021;SDS011;64718;52.124;6.226;2023-08-06T01:36:08;12.82;;;8.20;;
76021;SDS011;64718;52.124;6.226;2023-08-06T01:38:35;14.43;;;7.80;;
76021;SDS011;64718;52.124;6.226;2023-08-06T01:41:02;16.92;;;9.38;;
76021;SDS011;64718;52.124;6.226;2023-08-06T01:43:28;16.38;;;9.02;;
76021;SDS011;64718;52.124;6.226;2023-08-06T01:45:55;15.35;;;9.20;;
76021;SDS011;64718;52.124;6.226;2023-08-06T01:48:22;16.50;;;9.43;;
76021;SDS011;64718;52.124;6.226;2023-08-06T01:50:48;14.98;;;8.85;;
76021;SDS011;64718;52.124;6.226;2023-08-06T01:53:16;14.43;;;8.77;;
76021;SDS011;64718;52.124;6.226;2023-08-06T01:58:13;14.48;;;8.02;;
76021;SDS011;64718;52.124;6.226;2023-08-06T02:00:40;16.33;;;8.27;;
76021;SDS011;64718;52.124;6.226;2023-08-06T02:03:06;16.33;;;9.77;;
76021;SDS011;64718;52.124;6.226;2023-08-06T02:05:33;14.43;;;9.13;;
76021;SDS011;64718;52.124;6.226;2023-08-06T02:07:59;16.08;;;8.52;;
76021;SDS011;64718;52.124;6.226;2023-08-06T02:10:27;16.80;;;8.88;;
76021;SDS011;64718;52.124;6.226;2023-08-06T02:12:54;16.08;;;10.43;;
76021;SDS011;64718;52.124;6.226;2023-08-06T02:15:20;14.10;;;8.23;;
76021;SDS011;64718;52.124;6.226;2023-08-06T02:17:47;15.35;;;8.57;;
76021;SDS011;64718;52.124;6.226;2023-08-06T02:20:14;16.05;;;9.45;;
76021;SDS011;64718;52.124;6.226;2023-08-06T02:22:40;13.48;;;7.55;;
76021;SDS011;64718;52.124;6.226;2023-08-06T02:25:07;16.05;;;9.48;;
76021;SDS011;64718;52.124;6.226;2023-08-06T02:27:36;13.13;;;8.50;;
76021;SDS011;64718;52.124;6.226;2023-08-06T02:30:04;17.50;;;8.45;;
76021;SDS011;64718;52.124;6.226;2023-08-06T02:32:31;17.20;;;9.48;;
76021;SDS011;64718;52.124;6.226;2023-08-06T02:35:00;19.55;;;8.02;;
76021;SDS011;64718;52.124;6.226;2023-08-06T02:37:27;15.15;;;8.45;;
76021;SDS011;64718;52.124;6.226;2023-08-06T02:39:53;15.45;;;9.00;;
76021;SDS011;64718;52.124;6.226;2023-08-06T02:42:20;14.88;;;8.18;;
76021;SDS011;64718;52.124;6.226;2023-08-06T02:44:49;13.00;;;9.48;;
76021;SDS011;64718;52.124;6.226;2023-08-06T02:47:16;13.88;;;9.25;;
76021;SDS011;64718;52.124;6.226;2023-08-06T02:49:43;12.18;;;7.05;;
76021;SDS011;64718;52.124;6.226;2023-08-06T02:52:09;15.43;;;8.15;;
76021;SDS011;64718;52.124;6.226;2023-08-06T02:54:36;13.43;;;8.52;;
76021;SDS011;64718;52.124;6.226;2023-08-06T02:59:33;14.13;;;8.60;;
76021;SDS011;64718;52.124;6.226;2023-08-06T03:02:01;16.08;;;10.25;;
76021;SDS011;64718;52.124;6.226;2023-08-06T03:04:28;12.48;;;8.57;;
76021;SDS011;64718;52.124;6.226;2023-08-06T03:06:55;14.35;;;8.63;;
76021;SDS011;64718;52.124;6.226;2023-08-06T03:09:22;15.00;;;9.82;;
76021;SDS011;64718;52.124;6.226;2023-08-06T03:11:48;13.88;;;8.10;;
76021;SDS011;64718;52.124;6.226;2023-08-06T03:14:15;12.88;;;8.27;;
76021;SDS011;64718;52.124;6.226;2023-08-06T03:16:42;15.43;;;8.07;;
76021;SDS011;64718;52.124;6.226;2023-08-06T03:19:09;13.80;;;8.93;;
76021;SDS011;64718;52.124;6.226;2023-08-06T03:21:36;14.32;;;8.80;;
76021;SDS011;64718;52.124;6.226;2023-08-06T03:24:03;13.27;;;8.32;;
76021;SDS011;64718;52.124;6.226;2023-08-06T03:26:29;13.95;;;8.75;;
76021;SDS011;64718;52.124;6.226;2023-08-06T03:28:56;13.90;;;8.50;;
76021;SDS011;64718;52.124;6.226;2023-08-06T03:31:23;11.82;;;7.35;;
76021;SDS011;64718;52.124;6.226;2023-08-06T03:33:49;16.40;;;8.60;;
76021;SDS011;64718;52.124;6.226;2023-08-06T03:36:17;14.75;;;9.32;;
76021;SDS011;64718;52.124;6.226;2023-08-06T03:38:44;14.55;;;8.88;;
76021;SDS011;64718;52.124;6.226;2023-08-06T03:41:10;14.35;;;8.77;;
76021;SDS011;64718;52.124;6.226;2023-08-06T03:43:37;16.17;;;8.40;;
76021;SDS011;64718;52.124;6.226;2023-08-06T03:46:03;13.52;;;8.75;;
76021;SDS011;64718;52.124;6.226;2023-08-06T03:48:30;11.93;;;7.57;;
76021;SDS011;64718;52.124;6.226;2023-08-06T03:50:57;13.10;;;8.18;;
76021;SDS011;64718;52.124;6.226;2023-08-06T03:53:27;14.05;;;7.85;;
76021;SDS011;64718;52.124;6.226;2023-08-06T03:55:53;12.82;;;7.07;;
76021;SDS011;64718;52.124;6.226;2023-08-06T03:58:20;13.48;;;8.05;;
76021;SDS011;64718;52.124;6.226;2023-08-06T04:00:47;11.13;;;7.38;;
76021;SDS011;64718;52.124;6.226;2023-08-06T04:03:14;13.55;;;8.07;;
76021;SDS011;64718;52.124;6.226;2023-08-06T04:05:40;13.68;;;8.07;;
76021;SDS011;64718;52.124;6.226;2023-08-06T04:08:07;11.25;;;7.47;;
76021;SDS011;64718;52.124;6.226;2023-08-06T04:10:35;13.30;;;8.30;;
76021;SDS011;64718;52.124;6.226;2023-08-06T04:13:02;15.35;;;7.35;;
76021;SDS011;64718;52.124;6.226;2023-08-06T04:15:28;11.93;;;8.07;;
76021;SDS011;64718;52.124;6.226;2023-08-06T04:17:55;14.10;;;7.63;;
76021;SDS011;64718;52.124;6.226;2023-08-06T04:20:22;13.80;;;8.48;;
76021;SDS011;64718;52.124;6.226;2023-08-06T04:22:48;12.00;;;7.55;;
76021;SDS011;64718;52.124;6.226;2023-08-06T04:25:15;12.50;;;7.80;;
76021;SDS011;64718;52.124;6.226;2023-08-06T04:27:47;15.88;;;8.98;;
76021;SDS011;64718;52.124;6.226;2023-08-06T04:30:13;12.35;;;7.97;;
76021;SDS011;64718;52.124;6.226;2023-08-06T04:32:40;12.43;;;6.75;;
76021;SDS011;64718;52.124;6.226;2023-08-06T04:35:07;12.30;;;6.47;;
76021;SDS011;64718;52.124;6.226;2023-08-06T04:37:34;14.20;;;7.90;;
76021;SDS011;64718;52.124;6.226;2023-08-06T04:40:00;12.73;;;8.10;;
76021;SDS011;64718;52.124;6.226;2023-08-06T04:42:27;11.20;;;7.28;;
76021;SDS011;64718;52.124;6.226;2023-08-06T04:44:55;14.13;;;7.20;;
76021;SDS011;64718;52.124;6.226;2023-08-06T04:47:21;12.85;;;8.20;;
76021;SDS011;64718;52.124;6.226;2023-08-06T04:49:48;13.10;;;7.80;;
76021;SDS011;64718;52.124;6.226;2023-08-06T04:52:14;12.98;;;7.43;;
76021;SDS011;64718;52.124;6.226;2023-08-06T04:54:41;15.07;;;7.50;;
76021;SDS011;64718;52.124;6.226;2023-08-06T04:57:08;10.13;;;7.10;;
76021;SDS011;64718;52.124;6.226;2023-08-06T04:59:35;10.65;;;6.75;;
76021;SDS011;64718;52.124;6.226;2023-08-06T05:02:03;11.93;;;7.85;;
76021;SDS011;64718;52.124;6.226;2023-08-06T05:04:30;10.18;;;6.60;;
76021;SDS011;64718;52.124;6.226;2023-08-06T05:06:57;11.07;;;6.82;;
76021;SDS011;64718;52.124;6.226;2023-08-06T05:09:25;10.70;;;6.90;;
76021;SDS011;64718;52.124;6.226;2023-08-06T05:11:52;11.45;;;7.53;;
76021;SDS011;64718;52.124;6.226;2023-08-06T05:14:18;9.20;;;6.60;;
76021;SDS011;64718;52.124;6.226;2023-08-06T05:16:45;10.52;;;6.78;;
76021;SDS011;64718;52.124;6.226;2023-08-06T05:19:13;9.55;;;6.45;;
76021;SDS011;64718;52.124;6.226;2023-08-06T05:21:39;10.40;;;6.93;;
76021;SDS011;64718;52.124;6.226;2023-08-06T05:24:06;11.63;;;7.68;;
76021;SDS011;64718;52.124;6.226;2023-08-06T05:26:32;11.20;;;7.53;;
76021;SDS011;64718;52.124;6.226;2023-08-06T05:29:00;10.13;;;6.65;;
76021;SDS011;64718;52.124;6.226;2023-08-06T05:31:26;9.07;;;6.43;;
76021;SDS011;64718;52.124;6.226;2023-08-06T05:33:54;12.27;;;7.68;;
76021;SDS011;64718;52.124;6.226;2023-08-06T05:36:22;9.18;;;5.97;;
76021;SDS011;64718;52.124;6.226;2023-08-06T05:38:48;11.43;;;6.72;;
76021;SDS011;64718;52.124;6.226;2023-08-06T05:41:15;9.70;;;6.13;;
76021;SDS011;64718;52.124;6.226;2023-08-06T05:43:41;11.32;;;7.15;;
76021;SDS011;64718;52.124;6.226;2023-08-06T05:46:08;9.20;;;5.75;;
76021;SDS011;64718;52.124;6.226;2023-08-06T05:48:35;11.25;;;6.97;;
76021;SDS011;64718;52.124;6.226;2023-08-06T05:51:01;8.02;;;6.10;;
76021;SDS011;64718;52.124;6.226;2023-08-06T05:53:29;12.15;;;7.25;;
76021;SDS011;64718;52.124;6.226;2023-08-06T05:55:56;10.93;;;6.53;;
76021;SDS011;64718;52.124;6.226;2023-08-06T05:58:22;10.98;;;6.95;;
76021;SDS011;64718;52.124;6.226;2023-08-06T06:00:51;10.45;;;6.10;;
76021;SDS011;64718;52.124;6.226;2023-08-06T06:03:17;11.48;;;6.78;;
76021;SDS011;64718;52.124;6.226;2023-08-06T06:05:44;10.73;;;6.47;;
76021;SDS011;64718;52.124;6.226;2023-08-06T06:08:11;11.73;;;7.15;;
76021;SDS011;64718;52.124;6.226;2023-08-06T06:10:39;12.40;;;8.45;;
76021;SDS011;64718;52.124;6.226;2023-08-06T06:13:05;10.23;;;6.93;;
76021;SDS011;64718;52.124;6.226;2023-08-06T06:15:32;12.70;;;7.25;;
76021;SDS011;64718;52.124;6.226;2023-08-06T06:17:58;11.27;;;7.72;;
76021;SDS011;64718;52.124;6.226;2023-08-06T06:20:25;10.88;;;5.35;;
76021;SDS011;64718;52.124;6.226;2023-08-06T06:22:52;10.70;;;5.15;;
76021;SDS011;64718;52.124;6.226;2023-08-06T06:25:18;10.80;;;6.68;;
76021;SDS011;64718;52.124;6.226;2023-08-06T06:27:46;9.05;;;6.20;;
76021;SDS011;64718;52.124;6.226;2023-08-06T06:30:13;8.85;;;6.57;;
76021;SDS011;64718;52.124;6.226;2023-08-06T06:32:39;10.30;;;6.93;;
76021;SDS011;64718;52.124;6.226;2023-08-06T06:35:06;11.18;;;7.25;;
76021;SDS011;64718;52.124;6.226;2023-08-06T06:37:33;9.98;;;7.20;;
76021;SDS011;64718;52.124;6.226;2023-08-06T06:40:00;10.75;;;6.97;;
76021;SDS011;64718;52.124;6.226;2023-08-06T06:42:26;10.30;;;6.43;;
76021;SDS011;64718;52.124;6.226;2023-08-06T06:44:54;10.30;;;6.95;;
76021;SDS011;64718;52.124;6.226;2023-08-06T06:47:21;10.13;;;6.95;;
76021;SDS011;64718;52.124;6.226;2023-08-06T06:49:47;8.15;;;6.35;;
76021;SDS011;64718;52.124;6.226;2023-08-06T06:52:14;9.10;;;6.65;;
76021;SDS011;64718;52.124;6.226;2023-08-06T06:54:40;9.43;;;6.80;;
76021;SDS011;64718;52.124;6.226;2023-08-06T06:57:07;9.95;;;6.47;;
76021;SDS011;64718;52.124;6.226;2023-08-06T06:59:33;8.73;;;6.22;;
76021;SDS011;64718;52.124;6.226;2023-08-06T07:02:01;9.63;;;7.22;;
76021;SDS011;64718;52.124;6.226;2023-08-06T07:04:28;8.63;;;6.85;;
76021;SDS011;64718;52.124;6.226;2023-08-06T07:06:55;9.73;;;7.18;;
76021;SDS011;64718;52.124;6.226;2023-08-06T07:09:21;10.40;;;6.15;;
76021;SDS011;64718;52.124;6.226;2023-08-06T07:11:48;9.75;;;6.78;;
76021;SDS011;64718;52.124;6.226;2023-08-06T07:14:14;9.35;;;5.57;;
76021;SDS011;64718;52.124;6.226;2023-08-06T07:16:41;8.93;;;6.15;;
76021;SDS011;64718;52.124;6.226;2023-08-06T07:19:09;11.43;;;6.80;;
76021;SDS011;64718;52.124;6.226;2023-08-06T07:21:35;9.15;;;5.50;;
76021;SDS011;64718;52.124;6.226;2023-08-06T07:24:02;9.40;;;6.45;;
76021;SDS011;64718;52.124;6.226;2023-08-06T07:26:29;8.60;;;5.80;;
76021;SDS011;64718;52.124;6.226;2023-08-06T07:28:56;8.98;;;6.13;;
76021;SDS011;64718;52.124;6.226;2023-08-06T07:31:22;7.25;;;5.28;;
76021;SDS011;64718;52.124;6.226;2023-08-06T07:33:49;9.38;;;7.40;;
76021;SDS011;64718;52.124;6.226;2023-08-06T07:36:17;10.57;;;6.22;;
76021;SDS011;64718;52.124;6.226;2023-08-06T07:38:44;8.75;;;5.50;;
76021;SDS011;64718;52.124;6.226;2023-08-06T07:41:10;10.02;;;6.32;;
76021;SDS011;64718;52.124;6.226;2023-08-06T07:43:37;10.63;;;6.72;;
76021;SDS011;64718;52.124;6.226;2023-08-06T07:46:03;10.00;;;6.28;;
76021;SDS011;64718;52.124;6.226;2023-08-06T07:48:30;8.63;;;5.20;;
76021;SDS011;64718;52.124;6.226;2023-08-06T07:50:57;9.05;;;6.60;;
76021;SDS011;64718;52.124;6.226;2023-08-06T07:53:26;9.80;;;6.50;;
76021;SDS011;64718;52.124;6.226;2023-08-06T07:55:54;7.40;;;5.38;;
76021;SDS011;64718;52.124;6.226;2023-08-06T07:58:21;8.13;;;6.35;;
76021;SDS011;64718;52.124;6.226;2023-08-06T08:00:47;7.93;;;5.07;;
76021;SDS011;64718;52.124;6.226;2023-08-06T08:03:15;7.18;;;4.85;;
76021;SDS011;64718;52.124;6.226;2023-08-06T08:05:42;12.73;;;6.07;;
76021;SDS011;64718;52.124;6.226;2023-08-06T08:08:09;8.85;;;6.72;;
76021;SDS011;64718;52.124;6.226;2023-08-06T08:10:37;6.97;;;5.93;;
76021;SDS011;64718;52.124;6.226;2023-08-06T08:13:04;6.75;;;4.70;;
76021;SDS011;64718;52.124;6.226;2023-08-06T08:15:31;7.70;;;4.95;;
76021;SDS011;64718;52.124;6.226;2023-08-06T08:17:58;7.68;;;6.03;;
76021;SDS011;64718;52.124;6.226;2023-08-06T08:20:25;8.02;;;5.43;;
76021;SDS011;64718;52.124;6.226;2023-08-06T08:22:56;6.82;;;5.60;;
76021;SDS011;64718;52.124;6.226;2023-08-06T08:25:23;5.93;;;3.85;;
76021;SDS011;64718;52.124;6.226;2023-08-06T08:27:51;7.18;;;5.00;;
76021;SDS011;64718;52.124;6.226;2023-08-06T08:30:18;6.65;;;4.90;;
76021;SDS011;64718;52.124;6.226;2023-08-06T08:32:44;6.95;;;4.72;;
76021;SDS011;64718;52.124;6.226;2023-08-06T08:35:11;7.43;;;5.80;;
76021;SDS011;64718;52.124;6.226;2023-08-06T08:37:38;6.43;;;3.88;;
76021;SDS011;64718;52.124;6.226;2023-08-06T08:40:05;5.10;;;3.65;;
76021;SDS011;64718;52.124;6.226;2023-08-06T08:42:33;5.07;;;3.67;;
76021;SDS011;64718;52.124;6.226;2023-08-06T08:45:01;4.70;;;3.97;;
76021;SDS011;64718;52.124;6.226;2023-08-06T08:47:28;5.65;;;3.88;;
76021;SDS011;64718;52.124;6.226;2023-08-06T08:49:55;5.68;;;3.75;;
76021;SDS011;64718;52.124;6.226;2023-08-06T08:52:23;6.60;;;4.32;;
76021;SDS011;64718;52.124;6.226;2023-08-06T08:54:51;5.13;;;3.58;;
76021;SDS011;64718;52.124;6.226;2023-08-06T08:59:47;6.40;;;3.85;;
76021;SDS011;64718;52.124;6.226;2023-08-06T09:02:15;5.53;;;4.40;;
76021;SDS011;64718;52.124;6.226;2023-08-06T09:07:10;5.80;;;4.68;;
76021;SDS011;64718;52.124;6.226;2023-08-06T09:09:41;5.47;;;4.00;;
76021;SDS011;64718;52.124;6.226;2023-08-06T09:12:11;5.25;;;3.38;;
76021;SDS011;64718;52.124;6.226;2023-08-06T09:14:40;6.40;;;5.55;;
76021;SDS011;64718;52.124;6.226;2023-08-06T09:17:07;7.43;;;5.05;;
76021;SDS011;64718;52.124;6.226;2023-08-06T09:19:37;6.40;;;4.35;;
76021;SDS011;64718;52.124;6.226;2023-08-06T09:22:03;6.75;;;4.70;;
76021;SDS011;64718;52.124;6.226;2023-08-06T09:24:38;6.20;;;4.78;;
76021;SDS011;64718;52.124;6.226;2023-08-06T09:27:04;8.15;;;6.15;;
76021;SDS011;64718;52.124;6.226;2023-08-06T09:29:31;6.93;;;4.22;;
76021;SDS011;64718;52.124;6.226;2023-08-06T09:31:58;5.43;;;4.93;;
76021;SDS011;64718;52.124;6.226;2023-08-06T09:34:24;6.05;;;4.80;;
76021;SDS011;64718;52.124;6.226;2023-08-06T09:36:53;5.95;;;4.25;;
76021;SDS011;64718;52.124;6.226;2023-08-06T09:39:21;7.50;;;4.45;;
76021;SDS011;64718;52.124;6.226;2023-08-06T09:41:48;5.65;;;5.10;;
76021;SDS011;64718;52.124;6.226;2023-08-06T09:44:21;7.47;;;6.15;;
76021;SDS011;64718;52.124;6.226;2023-08-06T09:46:49;7.68;;;6.55;;
76021;SDS011;64718;52.124;6.226;2023-08-06T09:49:17;6.85;;;4.97;;
76021;SDS011;64718;52.124;6.226;2023-08-06T09:51:44;7.90;;;5.85;;
76021;SDS011;64718;52.124;6.226;2023-08-06T09:54:13;7.13;;;5.60;;
76021;SDS011;64718;52.124;6.226;2023-08-06T09:56:41;7.55;;;5.78;;
76021;SDS011;64718;52.124;6.226;2023-08-06T09:59:09;9.60;;;5.22;;
76021;SDS011;64718;52.124;6.226;2023-08-06T10:01:36;7.75;;;6.05;;
76021;SDS011;64718;52.124;6.226;2023-08-06T10:04:04;9.93;;;6.70;;
76021;SDS011;64718;52.124;6.226;2023-08-06T10:06:33;9.30;;;7.80;;
76021;SDS011;64718;52.124;6.226;2023-08-06T10:09:01;10.15;;;6.97;;
76021;SDS011;64718;52.124;6.226;2023-08-06T10:11:29;8.57;;;6.70;;
76021;SDS011;64718;52.124;6.226;2023-08-06T10:13:57;9.98;;;8.00;;
76021;SDS011;64718;52.124;6.226;2023-08-06T10:16:28;12.73;;;8.10;;
76021;SDS011;64718;52.124;6.226;2023-08-06T10:18:56;10.20;;;7.38;;
76021;SDS011;64718;52.124;6.226;2023-08-06T10:21:23;10.02;;;6.20;;
76021;SDS011;64718;52.124;6.226;2023-08-06T10:23:53;9.88;;;6.88;;
76021;SDS011;64718;52.124;6.226;2023-08-06T10:26:20;11.35;;;8.18;;
76021;SDS011;64718;52.124;6.226;2023-08-06T10:28:53;9.75;;;7.22;;
76021;SDS011;64718;52.124;6.226;2023-08-06T10:31:19;10.80;;;8.73;;
76021;SDS011;64718;52.124;6.226;2023-08-06T10:33:46;11.40;;;8.18;;
76021;SDS011;64718;52.124;6.226;2023-08-06T10:36:14;13.27;;;8.70;;
76021;SDS011;64718;52.124;6.226;2023-08-06T10:38:44;10.85;;;6.63;;
76021;SDS011;64718;52.124;6.226;2023-08-06T10:41:15;10.40;;;7.25;;
76021;SDS011;64718;52.124;6.226;2023-08-06T10:43:43;12.10;;;8.30;;
76021;SDS011;64718;52.124;6.226;2023-08-06T10:46:20;13.07;;;8.85;;
76021;SDS011;64718;52.124;6.226;2023-08-06T10:48:48;14.23;;;8.23;;
76021;SDS011;64718;52.124;6.226;2023-08-06T10:51:15;10.43;;;8.50;;
76021;SDS011;64718;52.124;6.226;2023-08-06T10:53:42;11.68;;;7.93;;
76021;SDS011;64718;52.124;6.226;2023-08-06T10:56:13;10.15;;;7.43;;
76021;SDS011;64718;52.124;6.226;2023-08-06T10:58:40;10.10;;;6.95;;
76021;SDS011;64718;52.124;6.226;2023-08-06T11:01:06;11.52;;;7.43;;
76021;SDS011;64718;52.124;6.226;2023-08-06T11:03:35;11.52;;;7.25;;
76021;SDS011;64718;52.124;6.226;2023-08-06T11:06:02;8.20;;;6.20;;
76021;SDS011;64718;52.124;6.226;2023-08-06T11:08:34;11.38;;;7.35;;
76021;SDS011;64718;52.124;6.226;2023-08-06T11:11:08;9.73;;;5.97;;
76021;SDS011;64718;52.124;6.226;2023-08-06T11:13:36;8.82;;;6.38;;
76021;SDS011;64718;52.124;6.226;2023-08-06T11:16:03;8.15;;;6.50;;
76021;SDS011;64718;52.124;6.226;2023-08-06T11:18:30;9.77;;;7.68;;
76021;SDS011;64718;52.124;6.226;2023-08-06T11:20:59;8.20;;;6.82;;
76021;SDS011;64718;52.124;6.226;2023-08-06T11:23:27;10.63;;;6.68;;
76021;SDS011;64718;52.124;6.226;2023-08-06T11:25:54;9.32;;;7.05;;
76021;SDS011;64718;52.124;6.226;2023-08-06T11:28:21;8.65;;;6.00;;
76021;SDS011;64718;52.124;6.226;2023-08-06T11:30:47;8.70;;;6.50;;
76021;SDS011;64718;52.124;6.226;2023-08-06T11:33:14;8.55;;;6.50;;
76021;SDS011;64718;52.124;6.226;2023-08-06T11:35:40;7.20;;;5.53;;
76021;SDS011;64718;52.124;6.226;2023-08-06T11:38:09;9.15;;;5.55;;
76021;SDS011;64718;52.124;6.226;2023-08-06T11:40:35;7.68;;;5.63;;
76021;SDS011;64718;52.124;6.226;2023-08-06T11:43:02;8.40;;;7.45;;
76021;SDS011;64718;52.124;6.226;2023-08-06T11:45:29;7.90;;;5.65;;
76021;SDS011;64718;52.124;6.226;2023-08-06T11:47:55;9.98;;;6.13;;
76021;SDS011;64718;52.124;6.226;2023-08-06T11:50:23;9.15;;;6.00;;
76021;SDS011;64718;52.124;6.226;2023-08-06T11:52:52;8.68;;;6.10;;
76021;SDS011;64718;52.124;6.226;2023-08-06T11:55:22;8.70;;;6.18;;
76021;SDS011;64718;52.124;6.226;2023-08-06T11:57:51;6.85;;;5.50;;
76021;SDS011;64718;52.124;6.226;2023-08-06T12:00:17;6.53;;;5.90;;
76021;SDS011;64718;52.124;6.226;2023-08-06T12:02:47;7.72;;;5.15;;
76021;SDS011;64718;52.124;6.226;2023-08-06T12:05:15;8.05;;;5.15;;
76021;SDS011;64718;52.124;6.226;2023-08-06T12:07:45;6.53;;;5.72;;
76021;SDS011;64718;52.124;6.226;2023-08-06T12:10:13;7.20;;;6.50;;
76021;SDS011;64718;52.124;6.226;2023-08-06T12:12:42;9.32;;;6.60;;
76021;SDS011;64718;52.124;6.226;2023-08-06T12:15:09;11.18;;;5.90;;
76021;SDS011;64718;52.124;6.226;2023-08-06T12:17:36;7.80;;;6.78;;
76021;SDS011;64718;52.124;6.226;2023-08-06T12:20:03;9.70;;;6.65;;
76021;SDS011;64718;52.124;6.226;2023-08-06T12:22:31;3.95;;;2.58;;
76021;SDS011;64718;52.124;6.226;2023-08-06T12:25:00;1.95;;;1.75;;
76021;SDS011;64718;52.124;6.226;2023-08-06T12:27:27;1.38;;;1.20;;
76021;SDS011;64718;52.124;6.226;2023-08-06T12:29:55;3.05;;;0.93;;
76021;SDS011;64718;52.124;6.226;2023-08-06T12:32:22;1.98;;;1.58;;
76021;SDS011;64718;52.124;6.226;2023-08-06T12:34:48;1.52;;;1.40;;
76021;SDS011;64718;52.124;6.226;2023-08-06T12:37:15;1.30;;;1.20;;
76021;SDS011;64718;52.124;6.226;2023-08-06T12:39:41;2.03;;;1.60;;
76021;SDS011;64718;52.124;6.226;2023-08-06T12:42:08;1.77;;;1.67;;
76021;SDS011;64718;52.124;6.226;2023-08-06T12:44:35;0.80;;;0.65;;
76021;SDS011;64718;52.124;6.226;2023-08-06T12:47:03;3.08;;;2.22;;
76021;SDS011;64718;52.124;6.226;2023-08-06T12:49:30;3.08;;;0.88;;
76021;SDS011;64718;52.124;6.226;2023-08-06T12:51:58;1.58;;;0.95;;
76021;SDS011;64718;52.124;6.226;2023-08-06T12:54:25;1.35;;;1.25;;
76021;SDS011;64718;52.124;6.226;2023-08-06T12:56:51;0.80;;;0.80;;
76021;SDS011;64718;52.124;6.226;2023-08-06T12:59:18;0.80;;;0.80;;
76021;SDS011;64718;52.124;6.226;2023-08-06T13:01:45;0.68;;;0.68;;
76021;SDS011;64718;52.124;6.226;2023-08-06T13:04:14;1.45;;;0.80;;
76021;SDS011;64718;52.124;6.226;2023-08-06T13:06:41;1.15;;;0.40;;
76021;SDS011;64718;52.124;6.226;2023-08-06T13:09:08;1.55;;;0.95;;
76021;SDS011;64718;52.124;6.226;2023-08-06T13:11:35;0.60;;;0.40;;
76021;SDS011;64718;52.124;6.226;2023-08-06T13:14:06;1.58;;;1.00;;
76021;SDS011;64718;52.124;6.226;2023-08-06T13:16:34;2.17;;;1.50;;
76021;SDS011;64718;52.124;6.226;2023-08-06T13:19:01;2.05;;;1.23;;
76021;SDS011;64718;52.124;6.226;2023-08-06T13:21:32;2.85;;;1.70;;
76021;SDS011;64718;52.124;6.226;2023-08-06T13:24:00;2.45;;;1.50;;
76021;SDS011;64718;52.124;6.226;2023-08-06T13:26:27;3.45;;;1.77;;
76021;SDS011;64718;52.124;6.226;2023-08-06T13:28:54;1.60;;;1.10;;
76021;SDS011;64718;52.124;6.226;2023-08-06T13:31:21;4.35;;;2.35;;
76021;SDS011;64718;52.124;6.226;2023-08-06T13:33:47;2.33;;;1.90;;
76021;SDS011;64718;52.124;6.226;2023-08-06T13:36:15;4.45;;;1.50;;
76021;SDS011;64718;52.124;6.226;2023-08-06T13:38:43;4.63;;;2.13;;
76021;SDS011;64718;52.124;6.226;2023-08-06T13:41:09;4.18;;;2.08;;
76021;SDS011;64718;52.124;6.226;2023-08-06T13:43:36;3.53;;;2.85;;
76021;SDS011;64718;52.124;6.226;2023-08-06T13:46:03;5.10;;;2.70;;
76021;SDS011;64718;52.124;6.226;2023-08-06T13:48:29;6.03;;;2.95;;
76021;SDS011;64718;52.124;6.226;2023-08-06T13:50:56;5.60;;;3.47;;
76021;SDS011;64718;52.124;6.226;2023-08-06T13:53:22;4.40;;;2.53;;
76021;SDS011;64718;52.124;6.226;2023-08-06T13:55:51;6.03;;;4.38;;
76021;SDS011;64718;52.124;6.226;2023-08-06T13:58:18;3.58;;;2.05;;
76021;SDS011;64718;52.124;6.226;2023-08-06T14:00:44;5.53;;;3.55;;
76021;SDS011;64718;52.124;6.226;2023-08-06T14:03:11;4.13;;;3.22;;
76021;SDS011;64718;52.124;6.226;2023-08-06T14:05:38;4.03;;;3.25;;
76021;SDS011;64718;52.124;6.226;2023-08-06T14:08:04;6.18;;;3.22;;
76021;SDS011;64718;52.124;6.226;2023-08-06T14:10:31;4.93;;;3.10;;
76021;SDS011;64718;52.124;6.226;2023-08-06T14:12:59;5.53;;;2.88;;
76021;SDS011;64718;52.124;6.226;2023-08-06T14:15:25;4.63;;;3.10;;
76021;SDS011;64718;52.124;6.226;2023-08-06T14:17:52;5.47;;;2.92;;
76021;SDS011;64718;52.124;6.226;2023-08-06T14:20:19;4.22;;;3.20;;
76021;SDS011;64718;52.124;6.226;2023-08-06T14:22:45;5.35;;;3.33;;
76021;SDS011;64718;52.124;6.226;2023-08-06T14:25:12;4.93;;;2.40;;
76021;SDS011;64718;52.124;6.226;2023-08-06T14:27:38;5.10;;;3.25;;
76021;SDS011;64718;52.124;6.226;2023-08-06T14:30:08;4.85;;;3.47;;
76021;SDS011;64718;52.124;6.226;2023-08-06T14:32:35;4.28;;;3.13;;
76021;SDS011;64718;52.124;6.226;2023-08-06T14:35:01;4.70;;;3.47;;
76021;SDS011;64718;52.124;6.226;2023-08-06T14:37:28;5.15;;;3.20;;
76021;SDS011;64718;52.124;6.226;2023-08-06T14:39:55;9.02;;;3.70;;
76021;SDS011;64718;52.124;6.226;2023-08-06T14:42:21;4.47;;;3.28;;
76021;SDS011;64718;52.124;6.226;2023-08-06T14:44:48;6.45;;;3.47;;
76021;SDS011;64718;52.124;6.226;2023-08-06T14:47:16;4.97;;;2.80;;
76021;SDS011;64718;52.124;6.226;2023-08-06T14:49:43;4.60;;;3.47;;
76021;SDS011;64718;52.124;6.226;2023-08-06T14:52:09;6.47;;;3.42;;